Rechercher aéroport 
image banner adimage banner adimage banner ad
image banner ad

CL24 - Kindsvater Ranch

Situé à Clovis, United States

ICAO - CL24, IATA -

Données fournies par Airmate  

Information générale

Coordonnées: N36°50'60" W119°30'36"
Élévation : 529 feet MSL.
Variation magnétique : 15° East
Voir autres Aéroports à California

Données opérationnelles

Special qualification required
Heure actuelle UTC:
Heure actuelle locale:
Météo à : KFAT - Fresno Yosemite Intl ( 20 km )
METAR: KFAT 291553Z 29003KT 10SM FEW200 29/13 A2992 RMK AO2 SLP126 MTNS OBSC FU HZ DSNT N-E-S T02890133 $
TAF: KFAT 291120Z 2912/3012 VRB05KT P6SM FEW250
Voir NOTAMs / SUP AIP / TFR affectant cet aéroport [VIEW]
Fréquences de communication: [VIEW]

Pistes:

Identifiant RWYQFULongueur (ft)Largeur (ft)SurfaceLDA (ft)
02200064EARTH
20200064EARTH

Coordonnées de l'aéroport

Adresse: Clovis United States

Vue satellite de CL24